sensor_id;sensor_type;location;lat;lon;timestamp;pressure;altitude;pressure_sealevel;temperature;humidity
31771;BME280;18343;50.152;8.182;2023-04-01T00:01:47;95678.50;;;10.61;100.00
31771;BME280;18343;50.152;8.182;2023-04-01T00:04:32;95677.28;;;10.80;100.00
31771;BME280;18343;50.152;8.182;2023-04-01T00:07:18;95679.75;;;10.82;100.00
31771;BME280;18343;50.152;8.182;2023-04-01T00:10:03;95680.69;;;10.76;100.00
31771;BME280;18343;50.152;8.182;2023-04-01T00:12:48;95680.78;;;10.81;100.00
31771;BME280;18343;50.152;8.182;2023-04-01T00:15:34;95679.50;;;10.72;100.00
31771;BME280;18343;50.152;8.182;2023-04-01T00:18:19;95682.13;;;10.43;100.00
31771;BME280;18343;50.152;8.182;2023-04-01T00:21:04;95674.88;;;10.44;100.00
31771;BME280;18343;50.152;8.182;2023-04-01T00:23:50;95670.66;;;10.60;100.00
31771;BME280;18343;50.152;8.182;2023-04-01T00:26:36;95675.47;;;10.58;100.00
31771;BME280;18343;50.152;8.182;2023-04-01T00:29:21;95668.91;;;10.54;100.00
31771;BME280;18343;50.152;8.182;2023-04-01T00:32:05;95668.00;;;10.36;100.00
31771;BME280;18343;50.152;8.182;2023-04-01T00:34:51;95676.03;;;10.60;100.00
31771;BME280;18343;50.152;8.182;2023-04-01T00:37:36;95670.19;;;10.63;100.00
31771;BME280;18343;50.152;8.182;2023-04-01T00:40:27;95674.25;;;10.77;100.00
31771;BME280;18343;50.152;8.182;2023-04-01T00:43:14;95673.56;;;10.70;100.00
31771;BME280;18343;50.152;8.182;2023-04-01T00:45:59;95677.34;;;10.57;100.00
31771;BME280;18343;50.152;8.182;2023-04-01T00:48:48;95672.19;;;10.56;100.00
31771;BME280;18343;50.152;8.182;2023-04-01T00:51:34;95670.78;;;10.41;100.00
31771;BME280;18343;50.152;8.182;2023-04-01T00:54:23;95669.16;;;10.64;100.00
31771;BME280;18343;50.152;8.182;2023-04-01T00:57:13;95677.56;;;10.09;100.00
31771;BME280;18343;50.152;8.182;2023-04-01T00:59:59;95674.13;;;10.13;100.00
31771;BME280;18343;50.152;8.182;2023-04-01T01:02:45;95674.66;;;10.22;100.00
31771;BME280;18343;50.152;8.182;2023-04-01T01:05:44;95667.97;;;10.48;100.00
31771;BME280;18343;50.152;8.182;2023-04-01T01:08:47;95665.84;;;10.15;100.00
31771;BME280;18343;50.152;8.182;2023-04-01T01:11:39;95672.63;;;10.17;100.00
31771;BME280;18343;50.152;8.182;2023-04-01T01:14:39;95668.25;;;10.35;100.00
31771;BME280;18343;50.152;8.182;2023-04-01T01:17:40;95663.53;;;10.42;100.00
31771;BME280;18343;50.152;8.182;2023-04-01T01:21:06;95665.63;;;10.16;100.00
31771;BME280;18343;50.152;8.182;2023-04-01T01:27:39;95660.16;;;10.46;100.00
31771;BME280;18343;50.152;8.182;2023-04-01T01:30:43;95661.34;;;10.27;100.00
31771;BME280;18343;50.152;8.182;2023-04-01T01:33:48;95663.69;;;10.24;100.00
31771;BME280;18343;50.152;8.182;2023-04-01T01:36:37;95657.59;;;10.40;100.00
31771;BME280;18343;50.152;8.182;2023-04-01T01:39:28;95657.50;;;10.23;100.00
31771;BME280;18343;50.152;8.182;2023-04-01T01:42:17;95661.00;;;10.24;100.00
31771;BME280;18343;50.152;8.182;2023-04-01T01:45:05;95653.03;;;10.40;100.00
31771;BME280;18343;50.152;8.182;2023-04-01T01:47:51;95652.91;;;10.47;100.00
31771;BME280;18343;50.152;8.182;2023-04-01T01:50:37;95650.09;;;10.42;100.00
31771;BME280;18343;50.152;8.182;2023-04-01T01:53:23;95651.16;;;10.52;100.00
31771;BME280;18343;50.152;8.182;2023-04-01T01:56:11;95643.59;;;10.26;100.00
31771;BME280;18343;50.152;8.182;2023-04-01T01:59:00;95650.91;;;9.96;100.00
31771;BME280;18343;50.152;8.182;2023-04-01T02:01:50;95634.00;;;10.07;100.00
31771;BME280;18343;50.152;8.182;2023-04-01T02:04:37;95646.16;;;10.21;100.00
31771;BME280;18343;50.152;8.182;2023-04-01T02:07:27;95638.34;;;10.31;100.00
31771;BME280;18343;50.152;8.182;2023-04-01T02:10:16;95642.28;;;10.40;100.00
31771;BME280;18343;50.152;8.182;2023-04-01T02:13:09;95639.81;;;10.50;100.00
31771;BME280;18343;50.152;8.182;2023-04-01T02:16:02;95637.59;;;10.59;100.00
31771;BME280;18343;50.152;8.182;2023-04-01T02:18:50;95632.81;;;10.61;100.00
31771;BME280;18343;50.152;8.182;2023-04-01T02:21:37;95635.03;;;10.52;100.00
31771;BME280;18343;50.152;8.182;2023-04-01T02:24:26;95629.75;;;9.88;100.00
31771;BME280;18343;50.152;8.182;2023-04-01T02:27:13;95636.44;;;9.97;100.00
31771;BME280;18343;50.152;8.182;2023-04-01T02:29:58;95622.09;;;10.03;100.00
31771;BME280;18343;50.152;8.182;2023-04-01T02:32:45;95629.06;;;10.15;100.00
31771;BME280;18343;50.152;8.182;2023-04-01T02:35:31;95625.34;;;10.05;100.00
31771;BME280;18343;50.152;8.182;2023-04-01T02:38:16;95636.91;;;10.17;100.00
31771;BME280;18343;50.152;8.182;2023-04-01T02:41:03;95620.91;;;10.10;100.00
31771;BME280;18343;50.152;8.182;2023-04-01T02:43:49;95638.06;;;9.74;100.00
31771;BME280;18343;50.152;8.182;2023-04-01T02:46:35;95629.19;;;9.85;100.00
31771;BME280;18343;50.152;8.182;2023-04-01T02:49:19;95628.63;;;10.07;100.00
31771;BME280;18343;50.152;8.182;2023-04-01T02:52:04;95632.72;;;10.09;100.00
31771;BME280;18343;50.152;8.182;2023-04-01T02:54:49;95627.00;;;10.29;100.00
31771;BME280;18343;50.152;8.182;2023-04-01T02:57:33;95628.75;;;10.12;100.00
31771;BME280;18343;50.152;8.182;2023-04-01T03:00:19;95629.31;;;10.14;100.00
31771;BME280;18343;50.152;8.182;2023-04-01T03:03:04;95621.75;;;10.11;100.00
31771;BME280;18343;50.152;8.182;2023-04-01T03:05:48;95624.31;;;10.06;100.00
31771;BME280;18343;50.152;8.182;2023-04-01T03:08:33;95616.59;;;10.21;100.00
31771;BME280;18343;50.152;8.182;2023-04-01T03:11:18;95622.78;;;10.10;100.00
31771;BME280;18343;50.152;8.182;2023-04-01T03:14:02;95626.16;;;10.17;100.00
31771;BME280;18343;50.152;8.182;2023-04-01T03:16:48;95629.66;;;10.17;100.00
31771;BME280;18343;50.152;8.182;2023-04-01T03:19:33;95629.66;;;9.94;100.00
31771;BME280;18343;50.152;8.182;2023-04-01T03:22:17;95626.66;;;10.26;100.00
31771;BME280;18343;50.152;8.182;2023-04-01T03:25:02;95633.19;;;10.06;100.00
31771;BME280;18343;50.152;8.182;2023-04-01T03:27:47;95627.31;;;9.74;100.00
31771;BME280;18343;50.152;8.182;2023-04-01T03:30:31;95635.81;;;9.71;100.00
31771;BME280;18343;50.152;8.182;2023-04-01T03:33:17;95621.84;;;9.93;100.00
31771;BME280;18343;50.152;8.182;2023-04-01T03:36:02;95621.97;;;10.09;100.00
31771;BME280;18343;50.152;8.182;2023-04-01T03:38:47;95626.06;;;10.12;100.00
31771;BME280;18343;50.152;8.182;2023-04-01T03:41:32;95626.84;;;9.89;100.00
31771;BME280;18343;50.152;8.182;2023-04-01T03:44:19;95617.97;;;9.77;100.00
31771;BME280;18343;50.152;8.182;2023-04-01T03:47:04;95621.63;;;9.82;100.00
31771;BME280;18343;50.152;8.182;2023-04-01T03:49:50;95627.31;;;9.98;100.00
31771;BME280;18343;50.152;8.182;2023-04-01T03:52:34;95619.41;;;10.03;100.00
31771;BME280;18343;50.152;8.182;2023-04-01T03:55:19;95622.63;;;9.70;100.00
31771;BME280;18343;50.152;8.182;2023-04-01T03:58:04;95626.59;;;9.67;100.00
31771;BME280;18343;50.152;8.182;2023-04-01T04:00:49;95621.13;;;9.85;100.00
31771;BME280;18343;50.152;8.182;2023-04-01T04:03:34;95618.78;;;9.89;100.00
31771;BME280;18343;50.152;8.182;2023-04-01T04:06:19;95623.00;;;9.97;100.00
31771;BME280;18343;50.152;8.182;2023-04-01T04:09:04;95620.06;;;9.87;100.00
31771;BME280;18343;50.152;8.182;2023-04-01T04:11:49;95623.47;;;9.94;100.00
31771;BME280;18343;50.152;8.182;2023-04-01T04:14:33;95618.09;;;9.94;100.00
31771;BME280;18343;50.152;8.182;2023-04-01T04:17:18;95625.34;;;10.05;100.00
31771;BME280;18343;50.152;8.182;2023-04-01T04:20:04;95630.56;;;9.65;100.00
31771;BME280;18343;50.152;8.182;2023-04-01T04:22:50;95627.31;;;9.86;100.00
31771;BME280;18343;50.152;8.182;2023-04-01T04:25:35;95625.22;;;9.76;100.00
31771;BME280;18343;50.152;8.182;2023-04-01T04:28:19;95623.94;;;9.91;100.00
31771;BME280;18343;50.152;8.182;2023-04-01T04:31:04;95626.50;;;9.97;100.00
31771;BME280;18343;50.152;8.182;2023-04-01T04:33:49;95622.91;;;10.03;100.00
31771;BME280;18343;50.152;8.182;2023-04-01T04:36:33;95616.59;;;9.98;100.00
31771;BME280;18343;50.152;8.182;2023-04-01T04:39:19;95638.75;;;9.93;100.00
31771;BME280;18343;50.152;8.182;2023-04-01T04:42:05;95637.38;;;9.79;100.00
31771;BME280;18343;50.152;8.182;2023-04-01T04:44:49;95627.97;;;9.58;100.00
31771;BME280;18343;50.152;8.182;2023-04-01T04:47:34;95636.28;;;9.68;100.00
31771;BME280;18343;50.152;8.182;2023-04-01T04:50:18;95632.59;;;9.81;100.00
31771;BME280;18343;50.152;8.182;2023-04-01T04:53:03;95635.84;;;9.83;100.00
31771;BME280;18343;50.152;8.182;2023-04-01T04:55:50;95624.28;;;9.71;100.00
31771;BME280;18343;50.152;8.182;2023-04-01T04:58:35;95644.72;;;9.83;100.00
31771;BME280;18343;50.152;8.182;2023-04-01T05:01:20;95639.66;;;9.64;100.00
31771;BME280;18343;50.152;8.182;2023-04-01T05:04:05;95643.88;;;9.71;100.00
31771;BME280;18343;50.152;8.182;2023-04-01T05:06:49;95628.47;;;9.90;100.00
31771;BME280;18343;50.152;8.182;2023-04-01T05:09:34;95635.25;;;9.69;100.00
31771;BME280;18343;50.152;8.182;2023-04-01T05:12:20;95637.72;;;9.82;100.00
31771;BME280;18343;50.152;8.182;2023-04-01T05:15:06;95637.38;;;9.79;100.00
31771;BME280;18343;50.152;8.182;2023-04-01T05:17:51;95633.28;;;9.76;100.00
31771;BME280;18343;50.152;8.182;2023-04-01T05:20:36;95634.22;;;9.82;100.00
31771;BME280;18343;50.152;8.182;2023-04-01T05:23:21;95637.22;;;9.85;100.00
31771;BME280;18343;50.152;8.182;2023-04-01T05:26:11;95627.56;;;10.08;100.00
31771;BME280;18343;50.152;8.182;2023-04-01T05:28:58;95630.50;;;10.06;100.00
31771;BME280;18343;50.152;8.182;2023-04-01T05:31:42;95630.00;;;9.98;100.00
31771;BME280;18343;50.152;8.182;2023-04-01T05:34:27;95634.91;;;10.01;100.00
31771;BME280;18343;50.152;8.182;2023-04-01T05:37:11;95636.09;;;10.05;100.00
31771;BME280;18343;50.152;8.182;2023-04-01T05:39:56;95623.50;;;10.05;100.00
31771;BME280;18343;50.152;8.182;2023-04-01T05:42:40;95630.00;;;9.98;100.00
31771;BME280;18343;50.152;8.182;2023-04-01T05:45:27;95635.38;;;9.74;100.00
31771;BME280;18343;50.152;8.182;2023-04-01T05:48:11;95638.53;;;9.83;100.00
31771;BME280;18343;50.152;8.182;2023-04-01T05:50:56;95627.78;;;9.71;100.00
31771;BME280;18343;50.152;8.182;2023-04-01T05:53:40;95635.03;;;9.82;100.00
31771;BME280;18343;50.152;8.182;2023-04-01T05:56:25;95631.63;;;9.75;100.00
31771;BME280;18343;50.152;8.182;2023-04-01T05:59:11;95622.88;;;9.92;100.00
31771;BME280;18343;50.152;8.182;2023-04-01T06:01:57;95619.16;;;9.93;100.00
31771;BME280;18343;50.152;8.182;2023-04-01T06:04:42;95621.84;;;9.93;100.00
31771;BME280;18343;50.152;8.182;2023-04-01T06:07:27;95623.72;;;10.04;100.00
31771;BME280;18343;50.152;8.182;2023-04-01T06:10:15;95626.84;;;9.89;100.00
31771;BME280;18343;50.152;8.182;2023-04-01T06:13:06;95627.44;;;9.79;100.00
31771;BME280;18343;50.152;8.182;2023-04-01T06:16:04;95616.00;;;9.96;100.00
31771;BME280;18343;50.152;8.182;2023-04-01T06:22:33;95630.72;;;9.81;100.00
31771;BME280;18343;50.152;8.182;2023-04-01T06:25:29;95633.16;;;9.95;100.00
31771;BME280;18343;50.152;8.182;2023-04-01T06:28:41;95638.38;;;9.55;100.00
31771;BME280;18343;50.152;8.182;2023-04-01T06:31:56;95636.63;;;9.60;100.00
31771;BME280;18343;50.152;8.182;2023-04-01T06:35:28;95640.16;;;9.72;100.00
31771;BME280;18343;50.152;8.182;2023-04-01T06:38:31;95637.59;;;9.89;100.00
31771;BME280;18343;50.152;8.182;2023-04-01T06:41:37;95639.22;;;9.78;100.00
31771;BME280;18343;50.152;8.182;2023-04-01T06:44:36;95643.53;;;9.91;100.00
31771;BME280;18343;50.152;8.182;2023-04-01T06:47:36;95643.56;;;9.79;100.00
31771;BME280;18343;50.152;8.182;2023-04-01T06:50:34;95642.50;;;9.92;100.00
31771;BME280;18343;50.152;8.182;2023-04-01T06:53:26;95632.09;;;9.96;100.00
31771;BME280;18343;50.152;8.182;2023-04-01T06:56:17;95636.09;;;10.05;100.00
31771;BME280;18343;50.152;8.182;2023-04-01T06:59:07;95638.66;;;10.00;100.00
31771;BME280;18343;50.152;8.182;2023-04-01T07:01:57;95636.56;;;10.02;100.00
31771;BME280;18343;50.152;8.182;2023-04-01T07:04:46;95643.34;;;10.28;100.00
31771;BME280;18343;50.152;8.182;2023-04-01T07:07:39;95628.16;;;10.33;100.00
31771;BME280;18343;50.152;8.182;2023-04-01T07:10:34;95641.94;;;10.48;100.00
31771;BME280;18343;50.152;8.182;2023-04-01T07:13:24;95630.03;;;10.21;100.00
31771;BME280;18343;50.152;8.182;2023-04-01T07:16:13;95635.66;;;10.31;100.00
31771;BME280;18343;50.152;8.182;2023-04-01T07:19:06;95629.31;;;10.14;100.00
31771;BME280;18343;50.152;8.182;2023-04-01T07:21:56;95638.69;;;10.23;100.00
31771;BME280;18343;50.152;8.182;2023-04-01T07:24:44;95648.34;;;10.12;100.00
31771;BME280;18343;50.152;8.182;2023-04-01T07:27:29;95646.28;;;10.38;100.00
31771;BME280;18343;50.152;8.182;2023-04-01T07:30:17;95642.50;;;10.50;100.00
31771;BME280;18343;50.152;8.182;2023-04-01T07:33:06;95641.00;;;10.55;100.00
31771;BME280;18343;50.152;8.182;2023-04-01T07:35:58;95650.91;;;10.66;100.00
31771;BME280;18343;50.152;8.182;2023-04-01T07:38:55;95649.34;;;10.81;100.00
31771;BME280;18343;50.152;8.182;2023-04-01T07:41:51;95657.59;;;10.28;100.00
31771;BME280;18343;50.152;8.182;2023-04-01T07:44:49;95655.25;;;10.43;100.00
31771;BME280;18343;50.152;8.182;2023-04-01T07:47:55;95657.81;;;10.62;100.00
31771;BME280;18343;50.152;8.182;2023-04-01T07:50:50;95660.03;;;10.41;100.00
31771;BME280;18343;50.152;8.182;2023-04-01T07:53:47;95670.69;;;10.36;100.00
31771;BME280;18343;50.152;8.182;2023-04-01T07:56:41;95671.38;;;10.43;100.00
31771;BME280;18343;50.152;8.182;2023-04-01T07:59:35;95669.25;;;10.45;100.00
31771;BME280;18343;50.152;8.182;2023-04-01T08:02:38;95684.09;;;10.48;100.00
31771;BME280;18343;50.152;8.182;2023-04-01T08:05:29;95670.19;;;10.51;100.00
31771;BME280;18343;50.152;8.182;2023-04-01T08:08:25;95671.59;;;10.54;100.00
31771;BME280;18343;50.152;8.182;2023-04-01T08:11:26;95675.69;;;10.44;100.00
31771;BME280;18343;50.152;8.182;2023-04-01T08:14:25;95683.06;;;10.61;100.00
31771;BME280;18343;50.152;8.182;2023-04-01T08:17:22;95679.09;;;10.51;100.00
31771;BME280;18343;50.152;8.182;2023-04-01T08:20:26;95692.53;;;10.51;100.00
31771;BME280;18343;50.152;8.182;2023-04-01T08:23:15;95694.75;;;10.55;100.00
31771;BME280;18343;50.152;8.182;2023-04-01T08:26:05;95698.25;;;10.43;100.00
31771;BME280;18343;50.152;8.182;2023-04-01T08:28:55;95697.97;;;10.68;100.00
31771;BME280;18343;50.152;8.182;2023-04-01T08:31:47;95704.19;;;10.80;100.00
31771;BME280;18343;50.152;8.182;2023-04-01T08:34:37;95705.81;;;10.81;100.00
31771;BME280;18343;50.152;8.182;2023-04-01T08:37:28;95704.16;;;10.92;100.00
31771;BME280;18343;50.152;8.182;2023-04-01T08:40:41;95703.75;;;11.12;100.00
31771;BME280;18343;50.152;8.182;2023-04-01T08:47:29;95702.69;;;11.13;100.00
31771;BME280;18343;50.152;8.182;2023-04-01T08:50:50;95706.34;;;11.07;100.00
31771;BME280;18343;50.152;8.182;2023-04-01T08:54:07;95710.09;;;10.94;100.00
31771;BME280;18343;50.152;8.182;2023-04-01T08:57:01;95710.53;;;11.14;100.00
31771;BME280;18343;50.152;8.182;2023-04-01T09:00:00;95711.47;;;11.08;100.00
31771;BME280;18343;50.152;8.182;2023-04-01T09:06:37;95719.56;;;10.97;100.00
31771;BME280;18343;50.152;8.182;2023-04-01T09:10:17;95714.28;;;11.13;100.00
31771;BME280;18343;50.152;8.182;2023-04-01T09:17:08;95718.56;;;11.26;100.00
31771;BME280;18343;50.152;8.182;2023-04-01T09:20:30;95722.28;;;11.37;100.00
31771;BME280;18343;50.152;8.182;2023-04-01T09:23:37;95726.22;;;11.46;100.00
31771;BME280;18343;50.152;8.182;2023-04-01T09:26:56;95727.56;;;11.32;100.00
31771;BME280;18343;50.152;8.182;2023-04-01T09:34:07;95729.41;;;11.43;100.00
31771;BME280;18343;50.152;8.182;2023-04-01T09:37:17;95733.16;;;11.42;100.00
31771;BME280;18343;50.152;8.182;2023-04-01T09:40:16;95735.63;;;11.32;100.00
31771;BME280;18343;50.152;8.182;2023-04-01T09:43:21;95735.97;;;11.35;100.00
31771;BME280;18343;50.152;8.182;2023-04-01T09:46:16;95735.16;;;11.35;100.00
31771;BME280;18343;50.152;8.182;2023-04-01T09:49:41;95745.91;;;11.35;100.00
31771;BME280;18343;50.152;8.182;2023-04-01T09:52:35;95740.53;;;11.35;100.00
31771;BME280;18343;50.152;8.182;2023-04-01T09:56:14;95750.13;;;11.31;100.00
31771;BME280;18343;50.152;8.182;2023-04-01T10:03:42;95747.50;;;11.19;100.00
31771;BME280;18343;50.152;8.182;2023-04-01T10:14:07;95751.41;;;11.68;100.00
31771;BME280;18343;50.152;8.182;2023-04-01T10:17:35;95758.69;;;11.68;100.00
31771;BME280;18343;50.152;8.182;2023-04-01T10:20:46;95762.78;;;11.70;100.00
31771;BME280;18343;50.152;8.182;2023-04-01T10:24:16;95766.66;;;11.63;100.00
31771;BME280;18343;50.152;8.182;2023-04-01T10:27:26;95766.44;;;11.52;100.00
31771;BME280;18343;50.152;8.182;2023-04-01T10:30:58;95760.69;;;11.61;100.00
31771;BME280;18343;50.152;8.182;2023-04-01T10:34:28;95763.25;;;11.67;100.00
31771;BME280;18343;50.152;8.182;2023-04-01T10:37:53;95766.75;;;11.39;100.00
31771;BME280;18343;50.152;8.182;2023-04-01T10:48:31;95768.84;;;11.77;100.00
31771;BME280;18343;50.152;8.182;2023-04-01T10:52:12;95762.50;;;11.83;100.00
31771;BME280;18343;50.152;8.182;2023-04-01T10:59:36;95768.16;;;11.70;100.00
31771;BME280;18343;50.152;8.182;2023-04-01T11:06:55;95767.84;;;11.95;100.00
31771;BME280;18343;50.152;8.182;2023-04-01T11:10:41;95763.53;;;12.11;100.00
31771;BME280;18343;50.152;8.182;2023-04-01T11:18:11;95768.38;;;12.26;100.00
31771;BME280;18343;50.152;8.182;2023-04-01T11:21:58;95770.06;;;12.15;100.00
31771;BME280;18343;50.152;8.182;2023-04-01T11:25:23;95774.28;;;12.11;100.00
31771;BME280;18343;50.152;8.182;2023-04-01T11:28:33;95781.06;;;11.97;100.00
31771;BME280;18343;50.152;8.182;2023-04-01T11:31:43;95788.19;;;12.03;100.00
31771;BME280;18343;50.152;8.182;2023-04-01T11:34:50;95780.22;;;12.25;100.00
31771;BME280;18343;50.152;8.182;2023-04-01T11:37:44;95776.13;;;12.39;100.00
31771;BME280;18343;50.152;8.182;2023-04-01T11:40:39;95782.41;;;12.44;100.00
31771;BME280;18343;50.152;8.182;2023-04-01T11:43:34;95780.88;;;12.48;100.00
31771;BME280;18343;50.152;8.182;2023-04-01T11:46:27;95779.72;;;12.44;100.00
31771;BME280;18343;50.152;8.182;2023-04-01T11:49:29;95801.19;;;12.39;100.00
31771;BME280;18343;50.152;8.182;2023-04-01T11:52:36;95801.78;;;12.41;100.00
31771;BME280;18343;50.152;8.182;2023-04-01T11:55:35;95800.63;;;12.37;100.00
31771;BME280;18343;50.152;8.182;2023-04-01T11:58:54;95804.72;;;12.40;100.00
31771;BME280;18343;50.152;8.182;2023-04-01T12:01:54;95815.16;;;12.36;100.00
31771;BME280;18343;50.152;8.182;2023-04-01T12:05:15;95808.88;;;12.31;100.00
31771;BME280;18343;50.152;8.182;2023-04-01T12:08:30;95818.75;;;12.25;100.00
31771;BME280;18343;50.152;8.182;2023-04-01T12:11:25;95811.88;;;12.34;100.00
31771;BME280;18343;50.152;8.182;2023-04-01T12:14:19;95817.13;;;12.24;100.00
31771;BME280;18343;50.152;8.182;2023-04-01T12:17:15;95822.19;;;12.37;100.00
31771;BME280;18343;50.152;8.182;2023-04-01T12:20:30;95827.31;;;12.22;100.00
31771;BME280;18343;50.152;8.182;2023-04-01T12:23:38;95830.16;;;12.15;100.00
31771;BME280;18343;50.152;8.182;2023-04-01T12:26:42;95828.00;;;12.29;100.00
31771;BME280;18343;50.152;8.182;2023-04-01T12:30:00;95838.34;;;12.37;100.00
31771;BME280;18343;50.152;8.182;2023-04-01T12:32:54;95832.16;;;12.37;100.00
31771;BME280;18343;50.152;8.182;2023-04-01T12:35:56;95832.59;;;12.45;100.00
31771;BME280;18343;50.152;8.182;2023-04-01T12:39:05;95831.84;;;12.67;100.00
31771;BME280;18343;50.152;8.182;2023-04-01T12:42:04;95835.38;;;12.67;100.00
31771;BME280;18343;50.152;8.182;2023-04-01T12:45:08;95834.94;;;12.59;100.00
31771;BME280;18343;50.152;8.182;2023-04-01T12:48:39;95821.72;;;12.74;100.00
31771;BME280;18343;50.152;8.182;2023-04-01T12:52:07;95832.03;;;12.77;100.00
31771;BME280;18343;50.152;8.182;2023-04-01T12:55:35;95830.22;;;12.99;100.00
31771;BME280;18343;50.152;8.182;2023-04-01T12:58:49;95826.78;;;12.87;100.00
31771;BME280;18343;50.152;8.182;2023-04-01T13:02:03;95829.88;;;13.12;100.00
31771;BME280;18343;50.152;8.182;2023-04-01T13:05:10;95834.88;;;13.20;100.00
31771;BME280;18343;50.152;8.182;2023-04-01T13:08:13;95837.69;;;13.14;100.00
31771;BME280;18343;50.152;8.182;2023-04-01T13:11:12;95839.19;;;13.05;100.00
31771;BME280;18343;50.152;8.182;2023-04-01T13:14:27;95844.59;;;12.88;100.00
31771;BME280;18343;50.152;8.182;2023-04-01T13:17:21;95847.78;;;13.02;100.00
31771;BME280;18343;50.152;8.182;2023-04-01T13:20:16;95852.63;;;13.00;100.00
31771;BME280;18343;50.152;8.182;2023-04-01T13:23:16;95851.47;;;13.12;100.00
31771;BME280;18343;50.152;8.182;2023-04-01T13:26:13;95857.66;;;13.13;100.00
31771;BME280;18343;50.152;8.182;2023-04-01T13:29:06;95858.34;;;13.20;100.00
31771;BME280;18343;50.152;8.182;2023-04-01T13:32:06;95862.44;;;13.06;100.00
31771;BME280;18343;50.152;8.182;2023-04-01T13:35:20;95859.56;;;13.12;100.00
31771;BME280;18343;50.152;8.182;2023-04-01T13:38:46;95867.16;;;13.15;100.00
31771;BME280;18343;50.152;8.182;2023-04-01T13:44:48;95868.44;;;13.13;100.00
31771;BME280;18343;50.152;8.182;2023-04-01T13:51:21;95863.00;;;12.91;100.00
31771;BME280;18343;50.152;8.182;2023-04-01T13:54:33;95867.09;;;12.94;100.00
31771;BME280;18343;50.152;8.182;2023-04-01T13:57:42;95872.72;;;12.92;100.00
31771;BME280;18343;50.152;8.182;2023-04-01T14:00:51;95870.19;;;12.69;100.00
31771;BME280;18343;50.152;8.182;2023-04-01T14:03:53;95872.97;;;12.91;100.00
31771;BME280;18343;50.152;8.182;2023-04-01T14:07:01;95876.47;;;12.91;100.00
31771;BME280;18343;50.152;8.182;2023-04-01T14:10:19;95874.78;;;13.18;100.00
31771;BME280;18343;50.152;8.182;2023-04-01T14:13:15;95886.97;;;13.21;100.00
31771;BME280;18343;50.152;8.182;2023-04-01T14:20:28;95885.66;;;13.24;100.00
31771;BME280;18343;50.152;8.182;2023-04-01T14:23:31;95885.81;;;13.17;100.00
31771;BME280;18343;50.152;8.182;2023-04-01T14:26:53;95886.81;;;13.11;100.00
31771;BME280;18343;50.152;8.182;2023-04-01T14:29:56;95885.81;;;13.17;100.00
31771;BME280;18343;50.152;8.182;2023-04-01T14:32:51;95884.09;;;13.28;100.00
31771;BME280;18343;50.152;8.182;2023-04-01T14:35:53;95895.81;;;13.33;100.00
31771;BME280;18343;50.152;8.182;2023-04-01T14:38:54;95900.97;;;13.35;100.00
31771;BME280;18343;50.152;8.182;2023-04-01T14:41:48;95896.88;;;13.15;100.00
31771;BME280;18343;50.152;8.182;2023-04-01T14:48:17;95909.28;;;13.00;100.00
31771;BME280;18343;50.152;8.182;2023-04-01T14:51:16;95917.03;;;12.79;100.00
31771;BME280;18343;50.152;8.182;2023-04-01T14:54:11;95909.09;;;12.56;100.00
31771;BME280;18343;50.152;8.182;2023-04-01T14:57:10;95914.91;;;12.36;100.00
31771;BME280;18343;50.152;8.182;2023-04-01T15:00:00;95911.09;;;12.49;100.00
31771;BME280;18343;50.152;8.182;2023-04-01T15:02:56;95908.44;;;12.37;100.00
31771;BME280;18343;50.152;8.182;2023-04-01T15:05:49;95912.44;;;12.35;100.00
31771;BME280;18343;50.152;8.182;2023-04-01T15:08:43;95917.59;;;12.36;100.00
31771;BME280;18343;50.152;8.182;2023-04-01T15:11:49;95925.97;;;12.51;100.00
31771;BME280;18343;50.152;8.182;2023-04-01T15:14:52;95929.84;;;12.72;100.00
31771;BME280;18343;50.152;8.182;2023-04-01T15:17:57;95918.25;;;12.88;100.00
31771;BME280;18343;50.152;8.182;2023-04-01T15:21:01;95923.84;;;12.82;100.00
31771;BME280;18343;50.152;8.182;2023-04-01T15:23:57;95939.59;;;12.73;100.00
31771;BME280;18343;50.152;8.182;2023-04-01T15:27:31;95929.50;;;12.52;100.00
31771;BME280;18343;50.152;8.182;2023-04-01T15:30:28;95935.50;;;12.71;100.00
31771;BME280;18343;50.152;8.182;2023-04-01T15:33:42;95944.34;;;12.83;100.00
31771;BME280;18343;50.152;8.182;2023-04-01T15:36:39;95948.94;;;12.54;100.00
31771;BME280;18343;50.152;8.182;2023-04-01T15:39:39;95953.13;;;12.62;100.00
31771;BME280;18343;50.152;8.182;2023-04-01T15:42:43;95963.97;;;12.50;100.00
31771;BME280;18343;50.152;8.182;2023-04-01T15:45:41;95958.00;;;12.08;100.00
31771;BME280;18343;50.152;8.182;2023-04-01T15:48:40;95961.75;;;12.07;100.00
31771;BME280;18343;50.152;8.182;2023-04-01T15:51:53;95961.25;;;12.22;100.00
31771;BME280;18343;50.152;8.182;2023-04-01T15:55:20;95957.16;;;12.19;100.00
31771;BME280;18343;50.152;8.182;2023-04-01T15:58:44;95958.34;;;12.11;100.00
31771;BME280;18343;50.152;8.182;2023-04-01T16:01:37;95954.25;;;12.49;100.00
31771;BME280;18343;50.152;8.182;2023-04-01T16:04:46;95961.41;;;12.72;100.00
31771;BME280;18343;50.152;8.182;2023-04-01T16:07:53;95956.69;;;12.79;100.00
31771;BME280;18343;50.152;8.182;2023-04-01T16:11:09;95966.41;;;12.80;100.00
31771;BME280;18343;50.152;8.182;2023-04-01T16:14:11;95964.94;;;12.89;100.00
31771;BME280;18343;50.152;8.182;2023-04-01T16:17:16;95975.09;;;12.82;100.00
31771;BME280;18343;50.152;8.182;2023-04-01T16:20:19;95969.22;;;12.85;100.00
31771;BME280;18343;50.152;8.182;2023-04-01T16:23:13;95980.44;;;12.65;100.00
31771;BME280;18343;50.152;8.182;2023-04-01T16:26:08;95979.00;;;12.34;100.00
31771;BME280;18343;50.152;8.182;2023-04-01T16:29:06;95985.78;;;12.48;100.00
31771;BME280;18343;50.152;8.182;2023-04-01T16:31:58;95992.31;;;12.24;100.00
31771;BME280;18343;50.152;8.182;2023-04-01T16:35:00;95991.38;;;12.18;100.00
31771;BME280;18343;50.152;8.182;2023-04-01T16:37:53;96004.16;;;12.11;100.00